Time;durP1;ratioP1;P1;durP2;ratioP2;P2;SDS_P1;SDS_P2;PMS_P1;PMS_P2;Temp;Humidity;BMP_temperature;BMP_pressure;BME280_temperature;BME280_humidity;BME280_pressure;Samples;Min_cycle;Max_cycle;Signal;HPM_P1;HPM_P2
2023/10/05 00:02:08;;;;;;;2.05;1.17;;;;;;;23.58;44.93;102067.06;4991320;28;20078;-66
2023/10/05 00:04:41;;;;;;;2.35;1.27;;;;;;;23.60;44.90;102065.03;5036957;28;20059;-65
2023/10/05 00:07:11;;;;;;;3.05;1.60;;;;;;;23.62;45.05;102068.34;5001210;28;20064;-64
2023/10/05 00:09:40;;;;;;;2.30;1.23;;;;;;;23.60;45.00;102075.69;5050482;28;20099;-65
2023/10/05 00:12:08;;;;;;;1.33;1.23;;;;;;;23.58;44.89;102061.72;4994239;28;20074;-65
2023/10/05 00:14:37;;;;;;;1.15;0.93;;;;;;;23.60;45.08;102067.69;5039039;28;20037;-65
2023/10/05 00:17:07;;;;;;;2.65;1.20;;;;;;;23.59;44.95;102069.53;5002964;28;20057;-65
2023/10/05 00:19:37;;;;;;;1.88;0.93;;;;;;;23.59;44.88;102061.56;5043571;28;20044;-66
2023/10/05 00:22:04;;;;;;;2.90;1.20;;;;;;;23.57;45.07;102063.56;5026094;28;20040;-68
2023/10/05 00:24:34;;;;;;;2.75;1.27;;;;;;;23.59;45.06;102071.38;5034961;28;20049;-69
2023/10/05 00:27:00;;;;;;;1.80;1.20;;;;;;;23.57;45.08;102063.56;4987194;28;20049;-67
2023/10/05 00:29:28;;;;;;;3.88;1.30;;;;;;;23.57;44.95;102073.38;5045623;28;20048;-68
2023/10/05 00:32:00;;;;;;;2.47;1.25;;;;;;;23.56;44.92;102066.38;4975058;28;20162;-69
2023/10/05 00:34:30;;;;;;;1.42;1.10;;;;;;;23.57;44.88;102068.88;5045146;28;20044;-68
2023/10/05 00:36:58;;;;;;;2.17;0.95;;;;;;;23.58;44.85;102072.38;4992769;28;20056;-68
2023/10/05 00:39:25;;;;;;;2.30;0.82;;;;;;;23.57;45.02;102058.25;5041186;28;20135;-68
2023/10/05 00:44:29;;;;;;;1.52;1.05;;;;;;;23.58;45.09;102062.56;5027411;28;20573;-68
2023/10/05 00:46:55;;;;;;;2.00;1.15;;;;;;;23.58;45.09;102053.75;5046948;28;20811;-69
2023/10/05 00:49:23;;;;;;;3.53;1.13;;;;;;;23.57;44.96;102046.78;4989270;28;20064;-67
2023/10/05 00:52:02;;;;;;;2.40;1.15;;;;;;;23.59;44.76;102052.75;5020368;28;20556;-67
2023/10/05 00:54:31;;;;;;;1.38;0.90;;;;;;;23.58;44.90;102046.59;5017812;28;20049;-67
2023/10/05 00:57:09;;;;;;;2.40;1.27;;;;;;;23.46;45.00;102022.22;5013349;28;20064;-69
2023/10/05 00:59:36;;;;;;;2.75;1.20;;;;;;;23.54;44.86;102031.16;5012678;28;20072;-68
2023/10/05 01:02:20;;;;;;;2.30;1.10;;;;;;;23.54;44.82;102047.94;5009809;28;20182;-67
2023/10/05 01:04:55;;;;;;;2.20;1.08;;;;;;;23.57;44.93;102039.63;5011037;28;20067;-65
2023/10/05 01:12:41;;;;;;;1.48;1.25;;;;;;;23.52;44.84;102034.00;5039350;28;20053;-65
2023/10/05 01:15:19;;;;;;;2.65;1.15;;;;;;;23.51;45.16;102040.28;5014863;28;20148;-64
2023/10/05 01:17:47;;;;;;;2.70;1.25;;;;;;;23.54;44.81;102044.44;5043826;28;20063;-66
2023/10/05 01:22:45;;;;;;;1.65;1.23;;;;;;;23.56;44.89;102037.13;5037565;28;20056;-66
2023/10/05 01:25:14;;;;;;;1.23;0.93;;;;;;;23.57;44.86;102029.00;5010939;28;20058;-66
2023/10/05 01:27:42;;;;;;;1.45;1.05;;;;;;;23.54;44.96;102017.88;5025344;28;20051;-66
2023/10/05 01:30:10;;;;;;;3.08;1.10;;;;;;;23.56;44.96;102029.16;5024360;28;20118;-66
2023/10/05 01:32:36;;;;;;;1.83;1.27;;;;;;;23.54;45.00;102013.38;5039566;28;20064;-68
2023/10/05 01:35:06;;;;;;;1.42;1.08;;;;;;;23.48;45.08;102027.34;4991584;28;20401;-67
2023/10/05 01:37:33;;;;;;;1.63;1.40;;;;;;;23.48;44.87;102022.03;5038647;28;20135;-67
2023/10/05 01:39:59;;;;;;;2.22;1.05;;;;;;;23.50;45.10;102026.16;4995186;28;20060;-66
2023/10/05 01:42:25;;;;;;;1.20;1.00;;;;;;;23.54;44.89;102031.97;5035968;28;20049;-67
2023/10/05 01:44:51;;;;;;;2.42;1.08;;;;;;;23.54;45.04;102034.66;4988009;28;20053;-67
2023/10/05 01:47:18;;;;;;;1.75;1.05;;;;;;;23.53;45.08;102043.63;5036248;28;20490;-67
2023/10/05 01:49:50;;;;;;;1.58;1.10;;;;;;;23.54;45.12;102039.97;5038496;28;20049;-67
2023/10/05 01:52:20;;;;;;;2.63;1.30;;;;;;;23.55;44.90;102036.28;4989068;28;20055;-67
2023/10/05 01:54:46;;;;;;;2.25;1.10;;;;;;;23.56;44.72;102037.13;5045483;28;20074;-67
2023/10/05 01:57:15;;;;;;;2.47;1.40;;;;;;;23.56;45.04;102040.59;4974517;28;20080;-66
2023/10/05 01:59:42;;;;;;;2.08;1.00;;;;;;;23.49;45.08;102036.97;5023433;28;20071;-67
2023/10/05 02:02:11;;;;;;;3.00;1.30;;;;;;;23.51;44.85;102035.78;4970849;28;20059;-66
2023/10/05 02:04:43;;;;;;;2.00;0.98;;;;;;;23.52;45.06;102041.97;5032048;28;20155;-67
2023/10/05 02:07:09;;;;;;;1.33;1.00;;;;;;;23.51;44.97;102040.28;5033685;28;20048;-67
2023/10/05 02:09:38;;;;;;;1.08;0.90;;;;;;;23.51;44.89;102035.78;5042733;28;20041;-67
2023/10/05 02:12:06;;;;;;;2.13;1.30;;;;;;;23.51;44.90;102038.44;4976818;28;20052;-67
2023/10/05 02:14:39;;;;;;;1.95;1.48;;;;;;;23.51;44.93;102040.28;5035267;28;20136;-67
2023/10/05 02:17:06;;;;;;;2.03;1.13;;;;;;;23.49;45.22;102037.81;4983298;28;20029;-67
2023/10/05 02:19:32;;;;;;;1.73;1.15;;;;;;;23.51;45.03;102029.66;5023443;28;20045;-67
2023/10/05 02:22:02;;;;;;;2.53;1.40;;;;;;;23.51;44.81;102034.97;4980883;28;20155;-65
2023/10/05 02:24:30;;;;;;;1.98;1.23;;;;;;;23.51;44.90;102032.31;5041671;28;20578;-66
2023/10/05 02:29:26;;;;;;;3.20;1.20;;;;;;;23.54;44.88;102025.84;5037088;28;20231;-64
2023/10/05 02:37:06;;;;;;;2.42;1.10;;;;;;;23.48;45.23;102028.16;4993117;28;20040;-64
2023/10/05 02:39:37;;;;;;;2.55;1.20;;;;;;;23.48;45.11;102028.16;5048915;28;20039;-64
2023/10/05 02:42:14;;;;;;;1.10;1.00;;;;;;;23.51;44.85;102029.66;4990184;28;20056;-63
2023/10/05 02:44:43;;;;;;;1.67;0.93;;;;;;;23.50;45.22;102033.31;5024540;28;20087;-63
2023/10/05 02:47:10;;;;;;;2.22;1.38;;;;;;;23.48;44.86;102019.38;5004722;28;20068;-65
2023/10/05 02:49:44;;;;;;;2.45;1.13;;;;;;;23.45;45.13;102012.56;5042556;28;20052;-65
2023/10/05 02:52:15;;;;;;;1.70;1.05;;;;;;;23.47;45.01;102018.53;5059959;28;20039;-64
2023/10/05 02:54:41;;;;;;;1.88;1.27;;;;;;;23.44;45.15;102015.41;5007046;28;20060;-66
2023/10/05 02:57:08;;;;;;;1.75;1.25;;;;;;;23.48;44.97;102024.69;5052504;28;20755;-65
2023/10/05 02:59:34;;;;;;;2.47;1.48;;;;;;;23.49;44.94;102016.53;5007951;28;20052;-66
2023/10/05 03:02:00;;;;;;;1.90;1.35;;;;;;;23.45;45.07;102014.41;5055917;28;20653;-66
2023/10/05 03:04:44;;;;;;;1.58;1.10;;;;;;;23.46;45.00;102016.88;5007421;28;20947;-65
2023/10/05 03:07:15;;;;;;;0.88;0.88;;;;;;;23.41;44.99;102007.78;5058773;28;20518;-65
2023/10/05 03:09:42;;;;;;;4.15;1.38;;;;;;;23.48;44.99;102014.88;5008479;28;20093;-65
2023/10/05 03:12:10;;;;;;;2.42;1.35;;;;;;;23.45;45.24;102015.22;5063638;28;20753;-66
2023/10/05 03:14:36;;;;;;;1.50;1.17;;;;;;;23.48;44.85;102009.56;5044221;28;20091;-64
2023/10/05 03:17:12;;;;;;;1.95;1.30;;;;;;;23.48;44.84;102014.06;5058712;28;20477;-65
2023/10/05 03:19:38;;;;;;;1.23;0.90;;;;;;;23.44;45.07;102010.91;4995714;28;20434;-64
2023/10/05 03:22:08;;;;;;;1.33;1.00;;;;;;;23.47;45.05;102007.09;5062929;28;20055;-65
2023/10/05 03:24:37;;;;;;;1.90;1.20;;;;;;;23.43;45.17;102009.28;5009554;28;21624;-67
2023/10/05 03:27:03;;;;;;;1.97;1.23;;;;;;;23.44;45.01;102007.44;5059546;28;20511;-67
2023/10/05 03:29:30;;;;;;;1.65;1.10;;;;;;;23.45;45.11;102011.75;5006131;28;20127;-66
2023/10/05 03:32:13;;;;;;;2.15;1.42;;;;;;;23.44;44.88;102010.91;5058165;28;20040;-66
2023/10/05 03:34:55;;;;;;;1.23;0.85;;;;;;;23.44;45.07;102024.22;5008590;28;20084;-67
2023/10/05 03:37:22;;;;;;;2.80;1.52;;;;;;;23.42;44.98;102014.75;5040405;28;20049;-67
2023/10/05 03:40:19;;;;;;;1.30;0.90;;;;;;;23.43;45.11;102014.59;5063390;28;20520;-67
2023/10/05 03:42:34;;;;;;;1.58;1.38;;;;;;;23.44;45.04;102016.25;5011956;28;20067;-66
2023/10/05 03:45:03;;;;;;;1.38;1.10;;;;;;;23.44;45.01;102013.59;5063600;28;20036;-67
2023/10/05 03:47:39;;;;;;;1.33;0.98;;;;;;;23.40;45.17;102012.28;4980578;28;20479;-67
2023/10/05 03:50:08;;;;;;;2.25;1.00;;;;;;;23.42;44.87;102020.09;5020199;28;20057;-67
2023/10/05 03:52:35;;;;;;;3.35;1.48;;;;;;;23.42;45.13;102020.09;4977899;28;20064;-67
2023/10/05 03:55:04;;;;;;;1.83;1.48;;;;;;;23.43;45.07;102011.09;5023046;28;20044;-67
2023/10/05 03:57:31;;;;;;;3.03;1.52;;;;;;;23.44;45.17;102018.06;4976127;28;20447;-65
2023/10/05 03:59:59;;;;;;;5.25;1.35;;;;;;;23.41;45.06;102015.78;5009613;28;20368;-66
2023/10/05 04:02:25;;;;;;;2.85;0.93;;;;;;;23.41;45.19;102015.78;5026360;28;20132;-66
2023/10/05 04:04:52;;;;;;;1.83;1.20;;;;;;;23.41;45.09;102021.91;5003917;28;20687;-66
2023/10/05 04:07:18;;;;;;;1.92;1.42;;;;;;;23.43;45.16;102016.41;4988809;28;20445;-66
2023/10/05 04:09:44;;;;;;;1.65;1.00;;;;;;;23.41;44.82;102019.25;5044330;28;20083;-66
2023/10/05 04:12:10;;;;;;;1.40;1.13;;;;;;;23.42;44.94;102020.91;4988883;28;20537;-66
2023/10/05 04:14:38;;;;;;;2.22;1.15;;;;;;;23.40;45.17;102020.25;5034072;28;20061;-66
2023/10/05 04:17:18;;;;;;;1.77;1.20;;;;;;;23.41;45.27;102016.59;4993415;28;20037;-66
2023/10/05 04:19:46;;;;;;;2.40;1.33;;;;;;;23.38;44.99;102024.91;5028519;28;20056;-66
2023/10/05 04:22:14;;;;;;;1.43;1.07;;;;;;;23.38;45.10;102014.28;5003800;28;20107;-66
2023/10/05 04:24:41;;;;;;;2.10;1.15;;;;;;;23.40;45.19;102020.25;5033084;28;20041;-66
2023/10/05 04:27:07;;;;;;;2.17;1.00;;;;;;;23.39;45.11;102023.09;4994247;28;20134;-66
2023/10/05 04:29:32;;;;;;;2.42;1.33;;;;;;;23.40;44.88;102025.56;5032921;28;20403;-66
2023/10/05 04:31:58;;;;;;;1.45;1.10;;;;;;;23.40;45.03;102024.75;4987131;28;20186;-68
2023/10/05 04:34:27;;;;;;;2.80;1.15;;;;;;;23.38;45.05;102026.75;5038881;28;20047;-66
2023/10/05 04:36:54;;;;;;;2.15;1.65;;;;;;;23.38;45.30;102026.75;4985166;28;20045;-65
2023/10/05 04:39:29;;;;;;;1.83;1.15;;;;;;;23.39;45.05;102023.09;5032614;28;20081;-65
2023/10/05 04:41:56;;;;;;;2.25;1.10;;;;;;;23.37;45.26;102025.09;4990187;28;20064;-65
2023/10/05 04:44:23;;;;;;;1.95;1.00;;;;;;;23.38;45.07;102022.25;5022268;28;20053;-64
2023/10/05 04:46:51;;;;;;;1.45;1.00;;;;;;;23.37;45.07;102025.09;5043500;28;20140;-64
2023/10/05 04:49:18;;;;;;;2.75;1.10;;;;;;;23.39;45.00;102025.75;4990553;28;20395;-65
2023/10/05 04:51:44;;;;;;;1.40;1.15;;;;;;;23.38;45.21;102018.78;5035184;28;20053;-65
2023/10/05 04:54:12;;;;;;;2.75;1.60;;;;;;;23.37;44.94;102017.13;4994551;28;20049;-66
2023/10/05 04:56:47;;;;;;;1.63;1.15;;;;;;;23.36;45.14;102024.28;5039824;28;20053;-66
2023/10/05 05:04:40;;;;;;;4.22;1.30;;;;;;;23.38;45.19;102016.13;4993897;28;20479;-67
2023/10/05 05:07:07;;;;;;;2.53;1.30;;;;;;;23.36;44.97;102018.97;5032459;28;20053;-65
2023/10/05 05:09:35;;;;;;;2.35;1.23;;;;;;;23.34;45.36;102023.63;5038656;28;20455;-65
2023/10/05 05:12:16;;;;;;;3.05;1.63;;;;;;;23.36;45.17;102029.59;4994139;28;20179;-65
2023/10/05 05:14:42;;;;;;;3.22;1.20;;;;;;;23.36;44.99;102026.09;5042042;28;20515;-65
2023/10/05 05:17:12;;;;;;;2.45;1.20;;;;;;;23.36;45.05;102021.63;4998643;28;20121;-67
2023/10/05 05:19:41;;;;;;;;;;;;;;;23.35;44.99;102024.44;5033714;28;20140;-67
2023/10/05 05:22:08;;;;;;;1.83;1.40;;;;;;;23.35;45.01;102027.94;4994876;28;19912;-67
2023/10/05 05:24:35;;;;;;;2.78;1.23;;;;;;;23.34;45.16;102026.28;5040417;28;20047;-67
2023/10/05 05:27:17;;;;;;;1.88;1.15;;;;;;;23.33;44.94;102027.25;4994499;28;20041;-67
2023/10/05 05:29:44;;;;;;;1.77;1.25;;;;;;;23.32;44.97;102025.59;5021204;28;20053;-67
2023/10/05 05:32:10;;;;;;;1.92;1.27;;;;;;;23.33;45.24;102019.28;5040303;28;20054;-66
2023/10/05 05:34:42;;;;;;;2.38;1.27;;;;;;;23.32;45.36;102030.91;4998113;28;20471;-66
2023/10/05 05:37:08;;;;;;;1.77;1.33;;;;;;;23.32;45.27;102035.41;5033270;28;20045;-66
2023/10/05 05:39:43;;;;;;;1.50;1.10;;;;;;;23.31;44.96;102031.09;4995253;28;20075;-66
2023/10/05 05:42:15;;;;;;;3.70;1.20;;;;;;;23.32;45.15;102033.56;5049921;28;20087;-66
2023/10/05 05:44:41;;;;;;;1.75;0.95;;;;;;;23.23;45.08;102029.31;4994342;28;20809;-66
2023/10/05 05:47:10;;;;;;;3.92;1.35;;;;;;;23.30;45.01;102029.44;5054200;28;20048;-66
2023/10/05 05:49:40;;;;;;;1.83;1.30;;;;;;;23.25;45.13;102023.81;5011750;28;20041;-63
2023/10/05 05:52:06;;;;;;;;;;;;;;;23.29;45.34;102038.41;5046894;28;20093;-64
2023/10/05 05:54:32;;;;;;;2.45;1.20;;;;;;;23.30;45.01;102042.72;5051493;28;19920;-64
2023/10/05 05:56:58;;;;;;;1.83;1.25;;;;;;;23.31;45.20;102037.22;5005000;28;20495;-63
2023/10/05 05:59:24;;;;;;;3.35;1.27;;;;;;;23.31;44.95;102041.72;5056098;28;20122;-63
2023/10/05 06:01:53;;;;;;;1.85;1.13;;;;;;;23.30;45.12;102037.41;5003481;28;20699;-63
2023/10/05 06:04:19;;;;;;;3.92;1.50;;;;;;;23.31;45.24;102042.56;5057326;28;20629;-63
2023/10/05 06:06:48;;;;;;;2.53;1.30;;;;;;;23.29;45.35;102038.41;5013205;28;20052;-64
2023/10/05 06:09:13;;;;;;;1.37;1.23;;;;;;;23.31;45.30;102053.19;5057002;28;20448;-64
2023/10/05 06:11:40;;;;;;;3.30;1.45;;;;;;;23.30;45.12;102053.34;5043543;28;20049;-63
2023/10/05 06:14:06;;;;;;;3.70;1.42;;;;;;;23.32;45.30;102059.31;5048313;28;20048;-64
2023/10/05 06:16:34;;;;;;;3.42;1.40;;;;;;;23.30;45.16;102064.00;5011472;28;20403;-63
2023/10/05 06:19:00;;;;;;;3.20;1.40;;;;;;;23.31;45.03;102063.81;5032112;28;20127;-64
2023/10/05 06:21:26;;;;;;;2.55;1.75;;;;;;;23.31;45.20;102071.78;5013534;28;20147;-64
2023/10/05 06:23:51;;;;;;;1.90;1.25;;;;;;;23.32;45.13;102069.97;5061614;28;20108;-64
2023/10/05 06:26:17;;;;;;;1.15;1.00;;;;;;;23.31;45.38;102081.59;5011146;28;20151;-63
2023/10/05 06:28:43;;;;;;;2.60;1.60;;;;;;;23.31;45.21;102079.75;5054564;28;20045;-64
2023/10/05 06:31:12;;;;;;;2.15;1.45;;;;;;;23.29;45.18;102076.44;5040147;28;20053;-64
2023/10/05 06:33:41;;;;;;;2.53;1.30;;;;;;;23.27;45.27;102070.47;5051611;28;20059;-63
2023/10/05 06:36:07;;;;;;;1.83;1.10;;;;;;;23.26;45.09;102071.47;5005249;28;20047;-66
2023/10/05 06:38:32;;;;;;;2.80;1.40;;;;;;;23.29;45.03;102079.09;5050256;28;20041;-67
2023/10/05 06:40:58;;;;;;;2.05;1.13;;;;;;;23.31;45.25;102074.44;5007287;28;20060;-67
2023/10/05 06:43:26;;;;;;;2.05;1.30;;;;;;;23.30;45.14;102085.25;5055083;28;20049;-67
2023/10/05 06:45:52;;;;;;;2.28;1.40;;;;;;;23.28;44.91;102082.75;5004771;28;20555;-66
2023/10/05 06:48:18;;;;;;;3.20;1.42;;;;;;;23.31;45.18;102087.72;5036736;28;20056;-66
2023/10/05 06:50:44;;;;;;;2.15;1.60;;;;;;;23.29;45.17;102086.25;4988345;28;20112;-65
2023/10/05 06:53:12;;;;;;;2.92;1.65;;;;;;;23.29;44.92;102094.22;5004773;28;20041;-65
2023/10/05 06:55:39;;;;;;;3.60;1.13;;;;;;;23.28;44.95;102097.88;5034082;28;20055;-64
2023/10/05 06:58:04;;;;;;;2.28;1.40;;;;;;;23.30;45.18;102099.38;4989112;28;20569;-65
2023/10/05 07:00:31;;;;;;;2.97;1.70;;;;;;;23.31;44.79;102114.31;5041411;28;20056;-64
2023/10/05 07:03:06;;;;;;;3.22;1.55;;;;;;;23.20;45.23;102096.94;5039806;28;20128;-65
2023/10/05 07:05:33;;;;;;;3.50;1.60;;;;;;;23.32;45.00;102108.00;5033198;28;20040;-67
2023/10/05 07:08:01;;;;;;;2.22;1.20;;;;;;;23.35;44.86;102114.81;5005590;28;20107;-65
2023/10/05 07:10:28;;;;;;;4.77;1.70;;;;;;;23.33;44.95;102107.00;5023078;28;20044;-67
2023/10/05 07:12:53;;;;;;;2.83;1.45;;;;;;;23.32;45.01;102113.31;5035185;28;20486;-66
2023/10/05 07:15:19;;;;;;;6.35;1.83;;;;;;;23.28;44.98;102111.19;5026685;28;20048;-66
2023/10/05 07:17:46;;;;;;;11.40;6.75;;;;;;;23.26;45.12;102111.34;4991644;28;20063;-67
2023/10/05 07:20:11;;;;;;;4.80;3.40;;;;;;;23.24;45.00;102113.34;5039915;28;20045;-68
2023/10/05 07:22:45;;;;;;;7.03;3.05;;;;;;;23.35;45.12;102118.31;4989412;28;20111;-68
2023/10/05 07:25:11;;;;;;;4.10;2.50;;;;;;;23.32;44.98;102104.50;5037754;28;20056;-69
2023/10/05 07:27:39;;;;;;;3.72;1.92;;;;;;;23.34;45.17;102114.00;4994553;28;20057;-67
2023/10/05 07:30:06;;;;;;;5.45;1.90;;;;;;;23.27;45.50;102122.81;4988465;28;20111;-66
2023/10/05 07:32:34;;;;;;;5.07;2.58;;;;;;;23.30;45.13;102125.13;5036604;28;20055;-67
2023/10/05 07:35:00;;;;;;;4.35;3.38;;;;;;;23.29;45.35;102134.09;4988782;28;20037;-68
2023/10/05 07:37:26;;;;;;;4.93;3.58;;;;;;;23.30;45.34;102135.75;5035471;28;20045;-67
2023/10/05 07:39:52;;;;;;;4.63;3.75;;;;;;;23.30;45.32;102144.56;4992375;28;20045;-64
2023/10/05 07:42:18;;;;;;;6.43;4.18;;;;;;;23.33;45.29;102146.84;5044880;28;20049;-67
2023/10/05 07:44:43;;;;;;;6.90;4.00;;;;;;;23.32;45.30;102144.38;4989658;28;20183;-68
2023/10/05 07:47:13;;;;;;;5.82;3.25;;;;;;;23.32;45.19;102155.84;5053916;28;20048;-68
2023/10/05 07:49:39;;;;;;;5.07;3.05;;;;;;;23.29;45.48;102150.88;5035987;28;20493;-70
2023/10/05 07:52:10;;;;;;;6.68;3.10;;;;;;;23.31;45.28;102163.97;5052871;28;20040;-67
2023/10/05 07:54:39;;;;;;;5.57;3.30;;;;;;;23.20;45.55;102157.22;5003255;28;20417;-68
2023/10/05 07:57:11;;;;;;;4.15;2.78;;;;;;;23.18;45.57;102162.72;5059694;28;20122;-65
2023/10/05 07:59:40;;;;;;;4.05;2.72;;;;;;;23.18;45.75;102175.16;5004001;28;20553;-63
2023/10/05 08:02:06;;;;;;;4.07;2.55;;;;;;;23.17;45.69;102158.41;5062258;28;20051;-64
2023/10/05 08:04:32;;;;;;;5.35;3.42;;;;;;;23.29;45.73;102171.31;5007531;28;20281;-65
2023/10/05 08:06:58;;;;;;;5.68;2.80;;;;;;;23.16;45.85;102180.66;5058281;28;20048;-64
2023/10/05 08:09:26;;;;;;;6.00;3.55;;;;;;;23.24;45.95;102184.28;5013003;28;20704;-63
2023/10/05 08:11:53;;;;;;;4.53;3.05;;;;;;;23.23;45.61;102195.91;5039360;28;20881;-64
2023/10/05 08:14:20;;;;;;;5.90;3.63;;;;;;;23.19;45.75;102195.41;5056934;28;20047;-63
2023/10/05 08:16:47;;;;;;;7.03;3.75;;;;;;;23.24;45.81;102200.22;5039537;28;20134;-64
2023/10/05 08:19:15;;;;;;;6.10;3.55;;;;;;;23.22;45.81;102200.41;5020038;28;20067;-64
2023/10/05 08:21:41;;;;;;;4.18;3.28;;;;;;;23.23;45.69;102194.09;5055072;28;20121;-63
2023/10/05 08:24:07;;;;;;;5.50;3.80;;;;;;;23.23;45.69;102195.91;5009336;28;20076;-64
2023/10/05 08:26:33;;;;;;;6.50;4.28;;;;;;;23.16;45.61;102203.72;5045987;28;20052;-64
2023/10/05 08:28:59;;;;;;;6.47;3.53;;;;;;;23.21;45.68;102206.72;5009966;28;20041;-64
2023/10/05 08:31:25;;;;;;;6.35;3.85;;;;;;;23.17;45.71;102211.53;5053350;28;20035;-64
2023/10/05 08:33:54;;;;;;;8.20;4.00;;;;;;;23.20;45.63;102221.81;5007889;28;20617;-64
2023/10/05 08:36:23;;;;;;;5.97;4.17;;;;;;;23.20;45.90;102221.00;5038393;28;20167;-64
2023/10/05 08:38:49;;;;;;;5.17;3.70;;;;;;;23.19;45.72;102216.69;5054572;28;20582;-64
2023/10/05 08:41:34;;;;;;;7.80;6.85;;;;;;;23.10;46.21;102215.84;4988904;28;21156;-66
2023/10/05 08:44:06;;;;;;;5.00;3.60;;;;;;;23.00;46.51;102223.19;5055730;28;20395;-67
2023/10/05 08:46:43;;;;;;;7.45;5.80;;;;;;;22.91;46.82;102227.66;5003986;28;21492;-66
2023/10/05 08:49:12;;;;;;;8.13;3.92;;;;;;;22.86;47.02;102234.47;5056526;28;20079;-65
2023/10/05 08:51:39;;;;;;;7.85;3.97;;;;;;;22.84;46.74;102225.84;5007520;28;20056;-66
2023/10/05 08:54:13;;;;;;;10.95;4.25;;;;;;;22.78;47.20;102229.94;5043494;28;20071;-66
2023/10/05 08:56:47;;;;;;;5.72;3.45;;;;;;;22.78;46.94;102235.25;5054768;28;20045;-66
2023/10/05 08:59:13;;;;;;;7.95;4.05;;;;;;;22.71;47.13;102238.75;5013711;28;20048;-66
2023/10/05 09:01:46;;;;;;;5.70;3.63;;;;;;;22.74;46.97;102241.88;5052623;28;20060;-66
2023/10/05 09:06:56;;;;;;;8.43;4.25;;;;;;;22.70;47.24;102250.34;5057054;28;20052;-66
2023/10/05 09:09:39;;;;;;;5.57;3.88;;;;;;;22.68;47.24;102250.53;5009433;28;20494;-66
2023/10/05 09:12:32;;;;;;;10.52;5.15;;;;;;;22.69;47.46;102252.19;5027487;28;20818;-65
2023/10/05 09:15:09;;;;;;;7.78;3.83;;;;;;;22.65;47.32;102263.31;5053098;28;20044;-66
2023/10/05 09:17:34;;;;;;;7.85;4.30;;;;;;;22.65;47.50;102268.63;5006701;28;20155;-66
2023/10/05 09:20:21;;;;;;;6.43;3.75;;;;;;;22.67;47.45;102271.94;5060546;28;20056;-67
2023/10/05 09:22:51;;;;;;;5.05;3.47;;;;;;;22.63;47.62;102271.44;5011567;28;20406;-66
2023/10/05 09:25:26;;;;;;;10.02;4.35;;;;;;;22.65;47.50;102273.94;5053079;28;20051;-67
2023/10/05 09:27:53;;;;;;;7.75;4.13;;;;;;;22.62;47.55;102275.06;5012569;28;20441;-66
2023/10/05 09:30:22;;;;;;;8.05;4.05;;;;;;;22.61;47.83;102284.84;5060117;28;20062;-66
2023/10/05 09:32:48;;;;;;;8.70;4.03;;;;;;;22.61;47.92;102284.84;5042445;28;20067;-66
2023/10/05 09:35:44;;;;;;;8.43;4.78;;;;;;;22.59;48.01;102294.81;5058573;28;20050;-66
2023/10/05 09:38:17;;;;;;;5.07;4.28;;;;;;;22.57;48.11;102291.47;5005210;28;20720;-66
2023/10/05 09:40:47;;;;;;;6.28;3.75;;;;;;;22.56;47.70;102307.56;5056010;28;20076;-66
2023/10/05 09:43:21;;;;;;;7.80;4.03;;;;;;;22.56;47.88;102289.81;4998086;28;20044;-65
2023/10/05 09:45:54;;;;;;;4.68;3.50;;;;;;;22.59;47.97;102300.13;5055468;28;20052;-66
2023/10/05 09:48:21;;;;;;;8.23;4.53;;;;;;;22.62;48.08;102301.59;4992520;28;20517;-66
2023/10/05 09:50:52;;;;;;;6.75;4.35;;;;;;;22.59;47.88;102297.47;5051690;28;20041;-66
2023/10/05 09:53:20;;;;;;;5.82;3.53;;;;;;;22.64;47.88;102304.13;5006657;28;20137;-66
2023/10/05 09:55:53;;;;;;;8.60;4.13;;;;;;;22.63;47.94;102308.59;5044108;28;20055;-64
2023/10/05 09:58:20;;;;;;;7.85;3.78;;;;;;;22.62;47.97;102306.91;5051484;28;20056;-65
2023/10/05 10:03:13;;;;;;;6.32;3.53;;;;;;;22.62;47.76;102301.59;5037320;28;20041;-63
2023/10/05 10:05:59;;;;;;;8.20;4.45;;;;;;;22.63;47.96;102303.28;5010037;28;20451;-64
2023/10/05 10:08:28;;;;;;;6.38;4.15;;;;;;;22.61;48.07;102299.94;5051820;28;20131;-64
2023/10/05 10:11:09;;;;;;;9.40;4.88;;;;;;;22.64;47.94;102304.13;5001944;28;20696;-64
2023/10/05 10:13:39;;;;;;;9.80;5.60;;;;;;;22.59;48.19;102300.13;5033629;28;20048;-63
2023/10/05 10:16:23;;;;;;;9.40;6.00;;;;;;;22.63;47.93;102307.78;5052315;28;20059;-64
2023/10/05 10:18:57;;;;;;;11.77;6.55;;;;;;;22.60;48.18;102300.94;5001109;28;20095;-64
2023/10/05 10:21:35;;;;;;;11.73;10.57;;;;;;;22.65;48.16;102295.16;5054251;28;20068;-65
2023/10/05 10:24:11;;;;;;;8.07;5.10;;;;;;;22.72;47.91;102299.66;5004691;28;21030;-64
2023/10/05 10:26:40;;;;;;;8.10;4.63;;;;;;;22.78;47.74;102304.28;5057409;28;20079;-64
2023/10/05 10:29:16;;;;;;;10.15;5.22;;;;;;;22.78;47.33;102303.47;5002052;28;20047;-64
2023/10/05 10:31:48;;;;;;;8.65;5.75;;;;;;;22.83;47.57;102310.00;5043342;28;20130;-64
2023/10/05 10:34:28;;;;;;;6.78;4.72;;;;;;;22.84;47.36;102314.31;5051247;28;20153;-64
2023/10/05 10:36:56;;;;;;;9.38;4.88;;;;;;;22.85;47.38;102310.66;5006873;28;20387;-66
2023/10/05 10:39:23;;;;;;;11.98;10.63;;;;;;;22.86;47.15;102316.81;5056891;28;20040;-66
2023/10/05 10:42:07;;;;;;;9.90;7.07;;;;;;;22.91;47.47;102319.78;5008028;28;20782;-64
2023/10/05 10:47:20;;;;;;;9.30;7.30;;;;;;;22.88;47.18;102310.34;4995350;28;20423;-65
2023/10/05 10:50:22;;;;;;;14.75;9.40;;;;;;;22.93;47.29;102325.78;5056237;28;20041;-66
2023/10/05 10:52:55;;;;;;;12.38;8.75;;;;;;;22.91;47.19;102314.47;5013146;28;20506;-64
2023/10/05 10:55:30;;;;;;;10.60;9.38;;;;;;;22.99;47.33;102321.66;5054380;28;20047;-64
2023/10/05 10:57:57;;;;;;;21.17;19.13;;;;;;;22.98;47.09;102320.81;5006576;28;20098;-67
2023/10/05 11:03:11;;;;;;;17.52;15.95;;;;;;;23.03;47.06;102329.13;5009309;28;20080;-66
2023/10/05 11:05:54;;;;;;;21.48;19.38;;;;;;;23.06;46.83;102326.13;5060249;28;20076;-66
2023/10/05 11:08:20;;;;;;;85.90;75.45;;;;;;;23.06;47.08;102325.28;5013839;28;20127;-64
2023/10/05 11:10:59;;;;;;;36.65;33.35;;;;;;;23.07;47.15;102319.81;5056338;28;20075;-64
2023/10/05 11:13:26;;;;;;;19.77;17.77;;;;;;;23.09;46.99;102322.31;4993438;28;20041;-65
2023/10/05 11:15:59;;;;;;;19.73;17.88;;;;;;;23.10;46.77;102316.81;5053691;28;20131;-64
2023/10/05 11:18:39;;;;;;;20.77;18.75;;;;;;;23.13;46.63;102318.31;5007775;28;20664;-64
2023/10/05 11:21:05;;;;;;;11.30;9.65;;;;;;;23.16;46.99;102320.63;5058259;28;20040;-65
2023/10/05 11:23:44;;;;;;;14.70;12.18;;;;;;;23.15;46.75;102309.16;5001807;28;20345;-63
2023/10/05 11:26:17;;;;;;;11.40;9.70;;;;;;;23.16;46.58;102297.56;5056467;28;20079;-63
2023/10/05 11:29:15;;;;;;;12.00;8.88;;;;;;;23.19;46.79;102305.22;5005198;28;20056;-63
2023/10/05 11:31:41;;;;;;;9.90;8.02;;;;;;;23.21;46.71;102305.88;5053834;28;20044;-63
2023/10/05 11:34:11;;;;;;;8.93;7.18;;;;;;;23.20;46.48;102314.84;5010201;28;20390;-63
2023/10/05 11:36:39;;;;;;;11.90;7.43;;;;;;;23.27;46.64;102308.84;5056677;28;20059;-63
2023/10/05 11:39:39;;;;;;;8.75;6.50;;;;;;;23.23;46.75;102300.38;5043794;28;20101;-65
2023/10/05 11:41:59;;;;;;;12.18;9.20;;;;;;;23.27;46.39;102307.03;5031744;28;20143;-65
2023/10/05 11:44:26;;;;;;;8.38;6.22;;;;;;;23.25;46.71;102298.38;5036677;28;20041;-65
2023/10/05 11:46:54;;;;;;;8.75;6.35;;;;;;;23.28;46.83;102298.03;5059199;28;20060;-65
2023/10/05 11:49:27;;;;;;;7.25;6.20;;;;;;;23.26;46.68;102300.03;4991480;28;20140;-65
2023/10/05 11:51:58;;;;;;;10.55;8.32;;;;;;;23.31;46.43;102302.19;5040369;28;20075;-64
2023/10/05 11:54:30;;;;;;;9.00;7.65;;;;;;;23.30;46.69;102300.53;5024847;28;20387;-65
2023/10/05 11:57:00;;;;;;;9.32;6.70;;;;;;;23.28;46.68;102297.22;5051766;28;20096;-64
2023/10/05 11:59:27;;;;;;;8.73;6.78;;;;;;;23.31;46.44;102297.72;5020744;28;20571;-65
2023/10/05 12:01:53;;;;;;;9.30;6.88;;;;;;;23.35;46.53;102314.19;5039836;28;20056;-63
2023/10/05 12:04:19;;;;;;;9.55;7.80;;;;;;;23.37;46.62;102320.16;5054160;28;20474;-64
2023/10/05 12:06:58;;;;;;;8.75;7.05;;;;;;;23.37;46.19;102317.50;5009418;28;20135;-63
2023/10/05 12:09:28;;;;;;;10.15;9.05;;;;;;;23.39;46.45;102318.97;5056498;28;20044;-64
2023/10/05 12:11:54;;;;;;;11.23;10.07;;;;;;;23.36;46.37;102323.81;5014619;28;20110;-63